Terminal Aerodrome Forecast
Issued by NWS

Home | Current Version | Previous Version | Text Only | Print | Product List | Glossary On
Versions: 1 2 3 4 5 6 7 8 9 10 11 12 13 14 15 16 17 18 19 20 21
028
FTUS41 KCAR 272337
TAFFVE
TAF
KFVE 272337Z 2800/2824 VRB03KT P6SM VCTS BKN060CB
      TEMPO 2800/2802 5SM -SHRA OVC040
     FM280200 VRB03KT P6SM VCSH BKN060
     FM280600 VRB03KT P6SM BKN060
     FM280800 VRB03KT 3SM BR BKN060
     FM281100 VRB03KT P6SM SCT060
     FM281600 25006KT P6SM VCSH BKN050=

USA.gov is the U.S. government's official web portal to all federal, state and local government web resources and services.